createdAt,value
2018-01-03T00:01:09.188Z,9.60
2018-01-03T00:03:37.357Z,17.60
2018-01-03T00:06:05.518Z,10.80
2018-01-03T00:08:34.494Z,8.57
2018-01-03T00:11:02.928Z,5.30
2018-01-03T00:13:31.235Z,6.43
2018-01-03T00:15:59.421Z,10.83
2018-01-03T00:18:27.569Z,5.53
2018-01-03T00:20:55.708Z,10.80
2018-01-03T00:23:25.108Z,7.53
2018-01-03T00:25:54.501Z,7.00
2018-01-03T00:28:23.443Z,9.00
2018-01-03T00:30:51.590Z,9.57
2018-01-03T00:33:19.795Z,13.47
2018-01-03T00:35:47.949Z,7.50
2018-01-03T00:38:16.097Z,8.27
2018-01-03T00:40:45.477Z,5.10
2018-01-03T00:43:14.414Z,8.23
2018-01-03T00:45:43.058Z,5.47
2018-01-03T00:48:11.239Z,7.87
2018-01-03T00:50:39.406Z,6.20
2018-01-03T00:53:07.562Z,8.73
2018-01-03T00:55:35.721Z,6.57
2018-01-03T00:58:04.110Z,4.40
2018-01-03T01:00:32.279Z,4.33
2018-01-03T01:03:00.440Z,4.97
2018-01-03T01:05:29.394Z,3.83
2018-01-03T01:07:58.293Z,7.37
2018-01-03T01:10:27.221Z,9.63
2018-01-03T01:12:55.394Z,7.70
2018-01-03T01:15:23.554Z,4.80
2018-01-03T01:17:51.711Z,5.33
2018-01-03T01:20:19.892Z,5.17
2018-01-03T01:22:48.062Z,3.63
2018-01-03T01:25:16.975Z,4.83
2018-01-03T01:27:45.120Z,5.13
2018-01-03T01:30:14.036Z,3.50
2018-01-03T01:32:42.208Z,5.10
2018-01-03T01:35:10.373Z,4.70
2018-01-03T01:37:38.532Z,7.00
2018-01-03T01:40:06.707Z,3.80
2018-01-03T01:42:34.850Z,6.40
2018-01-03T01:45:03.434Z,4.27
2018-01-03T01:47:31.701Z,4.90
2018-01-03T01:49:59.859Z,4.80
2018-01-03T01:52:28.007Z,2.50
2018-01-03T01:54:56.181Z,3.40
2018-01-03T01:57:24.327Z,3.37
2018-01-03T01:59:53.279Z,3.97
2018-01-03T02:02:21.428Z,3.57
2018-01-03T02:04:49.610Z,5.10
2018-01-03T02:07:17.770Z,7.33
2018-01-03T02:09:45.935Z,5.37
2018-01-03T02:12:14.095Z,6.80
2018-01-03T02:14:43.026Z,9.70
2018-01-03T02:17:11.168Z,5.00
2018-01-03T02:19:39.347Z,6.00
2018-01-03T02:22:07.481Z,4.83
2018-01-03T02:24:35.665Z,4.10
2018-01-03T02:27:04.901Z,5.33
2018-01-03T02:29:33.061Z,5.70
2018-01-03T02:32:01.196Z,8.10
2018-01-03T02:34:29.359Z,7.27
2018-01-03T02:36:57.585Z,5.13
2018-01-03T02:39:26.491Z,4.27
2018-01-03T02:41:54.661Z,5.30
2018-01-03T02:44:23.606Z,3.77
2018-01-03T02:46:51.745Z,6.23
2018-01-03T02:49:19.881Z,5.10
2018-01-03T02:51:48.080Z,3.30
2018-01-03T02:54:16.277Z,3.63
2018-01-03T02:56:44.437Z,6.43
2018-01-03T02:59:12.583Z,7.10
2018-01-03T03:01:40.745Z,5.83
2018-01-03T03:04:08.910Z,10.73
2018-01-03T03:06:37.868Z,5.37
2018-01-03T03:09:06.065Z,3.50
2018-01-03T03:11:34.229Z,6.20
2018-01-03T03:14:02.716Z,6.23
2018-01-03T03:16:31.025Z,3.60
2018-01-03T03:18:59.185Z,3.30
2018-01-03T03:21:27.352Z,5.27
2018-01-03T03:23:56.274Z,4.20
2018-01-03T03:26:24.430Z,3.70
2018-01-03T03:28:53.342Z,3.60
2018-01-03T03:31:21.508Z,3.17
2018-01-03T03:33:49.647Z,3.00
2018-01-03T03:36:17.817Z,2.97
2018-01-03T03:38:45.956Z,2.87
2018-01-03T03:41:14.137Z,2.93
2018-01-03T03:43:42.292Z,2.30
2018-01-03T03:46:10.475Z,2.00
2018-01-03T03:48:38.625Z,3.80
2018-01-03T03:51:06.801Z,7.73
2018-01-03T03:53:35.002Z,4.00
2018-01-03T03:56:03.939Z,2.60
2018-01-03T03:58:32.087Z,5.47
2018-01-03T04:01:00.284Z,5.27
2018-01-03T04:03:28.432Z,3.63
2018-01-03T04:05:56.618Z,4.37
2018-01-03T04:08:24.784Z,17.07
2018-01-03T04:10:52.998Z,5.00
2018-01-03T04:13:21.182Z,4.33
2018-01-03T04:15:49.361Z,5.13
2018-01-03T04:18:17.533Z,5.10
2018-01-03T04:20:45.737Z,6.83
2018-01-03T04:23:13.896Z,3.27
2018-01-03T04:25:42.092Z,4.97
2018-01-03T04:28:10.238Z,2.00
2018-01-03T04:30:38.453Z,3.30
2018-01-03T04:33:06.565Z,2.67
2018-01-03T04:35:35.504Z,3.70
2018-01-03T04:38:04.143Z,8.00
2018-01-03T04:40:33.087Z,4.77
2018-01-03T04:43:01.234Z,1.40
2018-01-03T04:45:29.416Z,3.73
2018-01-03T04:47:57.570Z,2.73
2018-01-03T04:50:25.757Z,2.53
2018-01-03T04:52:53.916Z,4.90
2018-01-03T04:55:22.102Z,2.60
2018-01-03T04:57:50.238Z,2.40
2018-01-03T05:00:19.190Z,2.33
2018-01-03T05:02:47.328Z,3.60
2018-01-03T05:05:15.485Z,2.60
2018-01-03T05:07:44.461Z,3.40
2018-01-03T05:10:12.626Z,4.00
2018-01-03T05:12:40.794Z,4.37
2018-01-03T05:15:09.767Z,4.33
2018-01-03T05:17:37.950Z,3.20
2018-01-03T05:20:06.098Z,3.40
2018-01-03T05:22:34.265Z,10.80
2018-01-03T05:25:02.820Z,4.60
2018-01-03T05:27:31.000Z,3.10
2018-01-03T05:29:59.172Z,3.07
2018-01-03T05:32:28.115Z,2.60
2018-01-03T05:34:57.020Z,2.87
2018-01-03T05:37:25.178Z,6.30
2018-01-03T05:39:53.327Z,1.53
2018-01-03T05:42:21.506Z,19.33
2018-01-03T05:44:49.645Z,2.77
2018-01-03T05:47:17.818Z,5.20
2018-01-03T05:49:45.962Z,3.07
2018-01-03T05:52:14.181Z,4.13
2018-01-03T05:54:43.089Z,2.83
2018-01-03T05:57:11.259Z,7.07
2018-01-03T05:59:39.401Z,2.80
2018-01-03T06:02:07.580Z,6.97
2018-01-03T06:04:35.772Z,3.77
2018-01-03T06:07:04.699Z,4.23
2018-01-03T06:09:32.844Z,2.60
2018-01-03T06:12:01.105Z,0.83
2018-01-03T06:14:29.503Z,1.20
2018-01-03T06:16:57.686Z,1.90
2018-01-03T06:19:25.833Z,0.70
2018-01-03T06:21:54.030Z,0.60
2018-01-03T06:24:22.174Z,0.87
2018-01-03T06:26:51.114Z,0.70
2018-01-03T06:29:19.282Z,1.53
2018-01-03T06:31:47.458Z,0.63
2018-01-03T06:34:15.630Z,0.60
2018-01-03T06:36:43.822Z,0.60
2018-01-03T06:39:11.957Z,2.10
2018-01-03T06:41:40.129Z,0.60
2018-01-03T06:44:08.304Z,1.07
2018-01-03T06:46:36.501Z,1.20
2018-01-03T06:49:04.657Z,0.90
2018-01-03T06:51:32.831Z,0.70
2018-01-03T06:54:01.015Z,4.20
2018-01-03T06:56:29.182Z,1.33
2018-01-03T06:58:57.354Z,0.80
2018-01-03T07:01:25.538Z,0.60
2018-01-03T07:03:53.705Z,0.60
2018-01-03T07:06:21.914Z,1.83
2018-01-03T07:08:50.070Z,0.70
2018-01-03T07:11:18.255Z,1.97
2018-01-03T07:13:46.413Z,0.90
2018-01-03T07:16:15.411Z,0.80
2018-01-03T07:18:43.578Z,1.30
2018-01-03T07:21:11.721Z,1.40
2018-01-03T07:23:40.673Z,4.83
2018-01-03T07:26:08.813Z,0.73
2018-01-03T07:28:36.978Z,0.87
2018-01-03T07:31:05.153Z,0.87
2018-01-03T07:33:33.346Z,0.90
2018-01-03T07:36:01.502Z,1.83
2018-01-03T07:38:29.674Z,1.90
2018-01-03T07:40:57.826Z,0.80
2018-01-03T07:43:25.990Z,2.33
2018-01-03T07:45:54.139Z,0.93
2018-01-03T07:48:22.309Z,1.20
2018-01-03T07:50:50.451Z,0.80
2018-01-03T07:53:18.620Z,0.73
2018-01-03T07:55:46.757Z,3.73
2018-01-03T07:58:14.942Z,1.13
2018-01-03T08:00:43.078Z,4.43
2018-01-03T08:03:12.078Z,1.43
2018-01-03T08:05:41.013Z,2.77
2018-01-03T08:08:09.186Z,1.33
2018-01-03T08:10:38.092Z,5.90
2018-01-03T08:13:06.262Z,3.60
2018-01-03T08:15:34.424Z,5.47
2018-01-03T08:18:03.722Z,2.27
2018-01-03T08:20:32.001Z,3.83
2018-01-03T08:23:00.994Z,3.00
2018-01-03T08:25:29.362Z,2.90
2018-01-03T08:27:58.316Z,6.10
2018-01-03T08:30:26.452Z,2.90
2018-01-03T08:32:54.622Z,3.23
2018-01-03T08:35:22.764Z,3.93
2018-01-03T08:37:50.964Z,1.97
2018-01-03T08:40:19.134Z,2.97
2018-01-03T08:42:48.106Z,1.77
2018-01-03T08:45:16.245Z,1.33
2018-01-03T08:47:44.417Z,2.50
2018-01-03T08:50:12.584Z,3.93
2018-01-03T08:52:40.880Z,2.10
2018-01-03T08:55:09.017Z,4.00
2018-01-03T08:57:37.261Z,5.80
2018-01-03T09:00:06.178Z,3.63
2018-01-03T09:02:39.005Z,4.80
2018-01-03T09:05:07.540Z,4.53
2018-01-03T09:07:35.985Z,9.00
2018-01-03T09:10:04.354Z,6.27
2018-01-03T09:12:32.545Z,6.47
2018-01-03T09:15:00.712Z,4.63
2018-01-03T09:17:29.511Z,4.87
2018-01-03T09:19:57.679Z,3.70
2018-01-03T09:22:25.846Z,6.97
2018-01-03T09:24:54.027Z,3.07
2018-01-03T09:27:22.243Z,4.03
2018-01-03T09:29:50.448Z,4.47
2018-01-03T09:32:18.630Z,8.00
2018-01-03T09:34:46.792Z,6.50
2018-01-03T09:37:15.750Z,6.53
2018-01-03T09:39:43.941Z,17.83
2018-01-03T09:42:12.115Z,11.00
2018-01-03T09:44:40.299Z,12.23
2018-01-03T09:47:08.457Z,16.00
2018-01-03T09:49:36.649Z,7.13
2018-01-03T09:52:04.800Z,3.50
2018-01-03T09:54:33.015Z,7.93
2018-01-03T09:57:01.325Z,3.93
2018-01-03T09:59:29.687Z,4.90
2018-01-03T10:01:57.867Z,7.90
2018-01-03T10:04:26.042Z,7.03
2018-01-03T10:06:54.989Z,4.67
2018-01-03T10:09:23.166Z,4.50
2018-01-03T10:11:51.826Z,10.13
2018-01-03T10:14:20.062Z,6.93
2018-01-03T10:16:48.308Z,10.43
2018-01-03T10:19:16.629Z,6.83
2018-01-03T10:21:44.688Z,5.07
2018-01-03T10:24:12.864Z,9.67
2018-01-03T10:26:41.823Z,6.27
2018-01-03T10:29:10.016Z,7.13
2018-01-03T10:31:38.184Z,6.53
2018-01-03T10:34:06.353Z,11.10
2018-01-03T10:36:34.513Z,11.10
2018-01-03T10:39:02.791Z,3.30
2018-01-03T10:41:31.070Z,5.13
2018-01-03T10:43:59.259Z,7.90
2018-01-03T10:46:27.395Z,7.60
2018-01-03T10:48:55.559Z,9.37
2018-01-03T10:51:23.685Z,8.77
2018-01-03T10:53:51.865Z,6.57
2018-01-03T10:56:20.014Z,8.00
2018-01-03T10:58:48.170Z,11.33
2018-01-03T11:01:16.767Z,5.13
2018-01-03T11:03:44.926Z,10.97
2018-01-03T11:06:13.091Z,10.37
2018-01-03T11:08:41.288Z,8.50
2018-01-03T11:11:09.451Z,14.27
2018-01-03T11:13:37.646Z,7.37
2018-01-03T11:16:05.894Z,9.93
2018-01-03T11:18:34.067Z,16.37
2018-01-03T11:21:02.660Z,10.93
2018-01-03T11:23:31.706Z,16.70
2018-01-03T11:25:59.866Z,8.97
2018-01-03T11:28:28.089Z,11.73
2018-01-03T11:30:56.255Z,10.70
2018-01-03T11:33:24.437Z,14.13
2018-01-03T11:35:52.600Z,6.60
2018-01-03T11:38:20.784Z,14.77
2018-01-03T11:40:48.926Z,14.10
2018-01-03T11:43:17.109Z,14.63
2018-01-03T11:45:46.060Z,17.87
2018-01-03T11:48:14.218Z,11.20
2018-01-03T11:50:42.885Z,12.80
2018-01-03T11:53:11.041Z,12.93
2018-01-03T11:55:39.985Z,10.47
2018-01-03T11:58:08.119Z,18.73
2018-01-03T12:00:37.066Z,24.43
2018-01-03T12:03:05.274Z,20.33
2018-01-03T12:05:34.214Z,12.47
2018-01-03T12:08:02.766Z,12.93
2018-01-03T12:10:30.934Z,12.63
2018-01-03T12:12:59.112Z,10.77
2018-01-03T12:15:28.038Z,17.43
2018-01-03T12:17:56.185Z,9.80
2018-01-03T12:20:24.360Z,11.77
2018-01-03T12:22:52.492Z,16.10
2018-01-03T12:25:21.438Z,11.83
2018-01-03T12:27:49.588Z,11.00
2018-01-03T12:30:18.280Z,16.30
2018-01-03T12:32:46.436Z,15.47
2018-01-03T12:35:15.825Z,10.60
2018-01-03T12:37:44.739Z,8.33
2018-01-03T12:40:13.674Z,14.53
2018-01-03T12:42:42.310Z,11.60
2018-01-03T12:45:11.282Z,10.00
2018-01-03T12:47:40.684Z,9.40
2018-01-03T12:50:09.630Z,14.13
2018-01-03T12:52:37.777Z,12.03
2018-01-03T12:55:07.080Z,9.57
2018-01-03T12:57:35.670Z,9.80
2018-01-03T13:00:04.615Z,7.73
2018-01-03T13:02:38.740Z,9.63
2018-01-03T13:05:07.701Z,11.13
2018-01-03T13:07:35.866Z,11.00
2018-01-03T13:10:04.472Z,7.90
2018-01-03T13:12:35.241Z,8.23
2018-01-03T13:15:04.098Z,6.00
2018-01-03T13:17:32.246Z,7.30
2018-01-03T13:20:00.428Z,6.53
2018-01-03T13:22:28.588Z,9.53
2018-01-03T13:24:57.529Z,6.50
2018-01-03T13:27:26.455Z,9.83
2018-01-03T13:29:54.632Z,5.43
2018-01-03T13:32:22.779Z,7.30
2018-01-03T13:34:51.729Z,4.17
2018-01-03T13:37:19.906Z,6.03
2018-01-03T13:39:48.082Z,6.10
2018-01-03T13:42:16.250Z,6.63
2018-01-03T13:44:44.405Z,6.00
2018-01-03T13:47:12.544Z,2.70
2018-01-03T13:49:41.487Z,4.73
2018-01-03T13:52:09.630Z,2.90
2018-01-03T13:54:37.805Z,2.97
2018-01-03T13:57:05.945Z,4.60
2018-01-03T13:59:34.122Z,5.23
2018-01-03T14:02:03.065Z,2.37
2018-01-03T14:07:07.595Z,2.10
2018-01-03T14:09:35.745Z,3.83
2018-01-03T14:12:04.339Z,4.00
2018-01-03T14:14:32.509Z,7.77
2018-01-03T14:17:00.648Z,6.97
2018-01-03T14:19:29.567Z,3.37
2018-01-03T14:21:57.707Z,2.17
2018-01-03T14:24:26.628Z,9.27
2018-01-03T14:26:54.774Z,3.27
2018-01-03T14:29:25.023Z,6.17
2018-01-03T14:31:53.149Z,2.77
2018-01-03T14:34:21.289Z,3.60
2018-01-03T14:36:49.428Z,4.43
2018-01-03T14:39:18.311Z,3.13
2018-01-03T14:41:47.241Z,3.10
2018-01-03T14:44:15.366Z,10.17
2018-01-03T14:46:43.519Z,9.13
2018-01-03T14:49:11.692Z,7.27
2018-01-03T14:51:39.857Z,6.13
2018-01-03T14:54:08.000Z,9.40
2018-01-03T14:56:36.180Z,6.07
2018-01-03T14:59:04.398Z,6.30
2018-01-03T15:01:32.544Z,9.07
2018-01-03T15:04:00.676Z,7.30
2018-01-03T15:06:29.603Z,9.83
2018-01-03T15:08:57.756Z,6.80
2018-01-03T15:11:26.204Z,5.47
2018-01-03T15:13:55.905Z,10.27
2018-01-03T15:16:23.997Z,6.70
2018-01-03T15:18:54.254Z,7.80
2018-01-03T15:21:22.462Z,8.20
2018-01-03T15:23:50.606Z,7.87
2018-01-03T15:26:18.806Z,9.30
2018-01-03T15:28:46.954Z,11.50
2018-01-03T15:31:15.127Z,6.73
2018-01-03T15:33:43.321Z,7.90
2018-01-03T15:36:11.529Z,8.20
2018-01-03T15:38:39.675Z,7.50
2018-01-03T15:41:07.887Z,4.37
2018-01-03T15:43:36.815Z,7.80
2018-01-03T15:46:05.094Z,5.40
2018-01-03T15:48:33.229Z,6.87
2018-01-03T15:51:01.477Z,6.00
2018-01-03T15:53:30.408Z,6.43
2018-01-03T15:55:58.598Z,7.87
2018-01-03T15:58:26.732Z,5.27
2018-01-03T16:00:55.690Z,15.50
2018-01-03T16:03:23.865Z,4.43
2018-01-03T16:05:52.034Z,9.70
2018-01-03T16:08:20.207Z,9.60
2018-01-03T16:10:48.399Z,10.03
2018-01-03T16:13:16.571Z,10.37
2018-01-03T16:15:44.729Z,19.23
2018-01-03T16:18:13.060Z,15.43
2018-01-03T16:20:41.276Z,10.87
2018-01-03T16:23:09.420Z,15.57
2018-01-03T16:25:38.379Z,10.80
2018-01-03T16:28:06.566Z,6.60
2018-01-03T16:30:35.504Z,9.90
2018-01-03T16:33:03.640Z,8.17
2018-01-03T16:35:32.570Z,11.77
2018-01-03T16:38:00.732Z,12.47
2018-01-03T16:40:28.971Z,13.10
2018-01-03T16:42:57.885Z,10.33
2018-01-03T16:45:26.799Z,10.90
2018-01-03T16:47:54.960Z,8.40
2018-01-03T16:50:23.125Z,9.70
2018-01-03T16:52:57.834Z,7.57
2018-01-03T16:55:26.756Z,4.67
2018-01-03T16:57:54.917Z,6.37
2018-01-03T17:00:23.075Z,5.77
2018-01-03T17:02:51.974Z,4.13
2018-01-03T17:05:20.944Z,3.50
2018-01-03T17:07:49.990Z,2.50
2018-01-03T17:10:18.116Z,4.73
2018-01-03T17:12:46.260Z,2.97
2018-01-03T17:15:14.375Z,5.70
2018-01-03T17:17:43.322Z,1.97
2018-01-03T17:20:11.527Z,4.83
2018-01-03T17:22:39.724Z,4.53
2018-01-03T17:25:08.679Z,3.43
2018-01-03T17:27:36.800Z,2.87
2018-01-03T17:30:05.711Z,2.00
2018-01-03T17:32:33.866Z,5.37
2018-01-03T17:35:02.952Z,4.97
2018-01-03T17:37:32.278Z,1.50
2018-01-03T17:40:00.422Z,6.57
2018-01-03T17:42:29.352Z,5.20
2018-01-03T17:44:57.815Z,7.60
2018-01-03T17:47:25.976Z,9.30
2018-01-03T17:49:54.876Z,8.27
2018-01-03T17:52:23.154Z,10.00
2018-01-03T17:54:51.403Z,8.27
2018-01-03T17:57:20.622Z,12.77
2018-01-03T17:59:49.892Z,9.70
2018-01-03T18:02:18.058Z,15.17
2018-01-03T18:04:46.420Z,10.30
2018-01-03T18:07:14.609Z,10.40
2018-01-03T18:09:42.888Z,7.70
2018-01-03T18:12:11.089Z,9.60
2018-01-03T18:14:40.070Z,5.87
2018-01-03T18:17:09.195Z,4.77
2018-01-03T18:19:37.366Z,7.70
2018-01-03T18:22:05.612Z,5.80
2018-01-03T18:24:33.807Z,12.60
2018-01-03T18:27:03.292Z,5.63
2018-01-03T18:29:31.484Z,7.80
2018-01-03T18:32:00.402Z,11.87
2018-01-03T18:34:28.758Z,12.07
2018-01-03T18:36:57.949Z,17.23
2018-01-03T18:39:27.067Z,11.20
2018-01-03T18:41:55.268Z,10.13
2018-01-03T18:44:23.529Z,10.23
2018-01-03T18:46:51.772Z,10.33
2018-01-03T18:49:20.719Z,16.47
2018-01-03T18:51:49.200Z,7.93
2018-01-03T18:54:18.447Z,11.17
2018-01-03T18:56:47.377Z,14.83
2018-01-03T18:59:15.701Z,8.20
2018-01-03T19:01:43.872Z,8.83
2018-01-03T19:04:12.009Z,5.83
2018-01-03T19:06:40.302Z,8.17
2018-01-03T19:09:08.524Z,7.00
2018-01-03T19:11:36.683Z,6.83
2018-01-03T19:14:05.588Z,8.83
2018-01-03T19:16:34.609Z,8.33
2018-01-03T19:19:03.549Z,8.67
2018-01-03T19:21:31.764Z,10.47
2018-01-03T19:23:59.921Z,15.33
2018-01-03T19:26:28.875Z,9.60
2018-01-03T19:28:57.126Z,12.70
2018-01-03T19:31:25.293Z,8.83
2018-01-03T19:33:53.428Z,9.43
2018-01-03T19:36:21.612Z,5.77
2018-01-03T19:38:49.779Z,12.67
2018-01-03T19:41:18.714Z,11.37
2018-01-03T19:43:47.657Z,8.90
2018-01-03T19:46:16.600Z,8.27
2018-01-03T19:48:44.857Z,10.20
2018-01-03T19:51:13.019Z,22.10
2018-01-03T19:53:41.339Z,19.70
2018-01-03T19:56:09.576Z,14.87
2018-01-03T19:58:38.654Z,20.87
2018-01-03T20:01:07.566Z,18.23
2018-01-03T20:03:35.780Z,16.13
2018-01-03T20:06:03.958Z,11.47
2018-01-03T20:08:32.112Z,12.13
2018-01-03T20:11:00.262Z,8.10
2018-01-03T20:13:28.427Z,14.80
2018-01-03T20:15:57.439Z,9.20
2018-01-03T20:18:25.714Z,14.03
2018-01-03T20:20:53.883Z,9.90
2018-01-03T20:23:22.128Z,12.27
2018-01-03T20:25:50.416Z,7.33
2018-01-03T20:28:18.796Z,11.07
2018-01-03T20:30:47.695Z,6.10
2018-01-03T20:33:16.625Z,11.53
2018-01-03T20:35:44.791Z,11.17
2018-01-03T20:38:12.936Z,12.13
2018-01-03T20:40:41.835Z,13.07
2018-01-03T20:43:10.794Z,22.03
2018-01-03T20:45:38.939Z,13.97
2018-01-03T20:48:07.150Z,11.77
2018-01-03T20:50:35.304Z,7.70
2018-01-03T20:53:03.451Z,11.10
2018-01-03T20:55:31.580Z,8.60
2018-01-03T20:58:00.504Z,9.80
2018-01-03T21:00:28.636Z,8.50
2018-01-03T21:02:56.801Z,9.87
2018-01-03T21:05:24.932Z,13.30
2018-01-03T21:07:53.092Z,9.57
2018-01-03T21:10:21.988Z,19.93
2018-01-03T21:12:50.153Z,13.73
2018-01-03T21:15:18.300Z,5.93
2018-01-03T21:17:46.449Z,13.53
2018-01-03T21:20:14.596Z,10.07
2018-01-03T21:22:42.777Z,7.60
2018-01-03T21:25:10.900Z,11.17
2018-01-03T21:27:39.060Z,9.07
2018-01-03T21:30:07.200Z,6.10
2018-01-03T21:32:35.365Z,9.90
2018-01-03T21:35:03.836Z,14.07
2018-01-03T21:37:32.002Z,13.40
2018-01-03T21:40:00.270Z,11.30
2018-01-03T21:42:29.176Z,5.80
2018-01-03T21:44:57.310Z,8.20
2018-01-03T21:47:25.496Z,6.10
2018-01-03T21:49:54.427Z,11.13
2018-01-03T21:52:22.588Z,8.10
2018-01-03T21:54:50.720Z,7.03
2018-01-03T21:57:18.879Z,14.33
2018-01-03T21:59:47.008Z,8.67
2018-01-03T22:02:15.173Z,7.93
2018-01-03T22:04:44.113Z,7.10
2018-01-03T22:07:12.268Z,9.30
2018-01-03T22:09:40.473Z,9.77
2018-01-03T22:12:08.616Z,13.80
2018-01-03T22:14:36.769Z,8.20
2018-01-03T22:17:04.902Z,11.67
2018-01-03T22:19:33.049Z,6.10
2018-01-03T22:22:01.192Z,18.23
2018-01-03T22:24:29.521Z,13.57
2018-01-03T22:26:58.433Z,8.43
2018-01-03T22:29:26.594Z,5.70
2018-01-03T22:31:54.736Z,8.67
2018-01-03T22:34:22.936Z,7.50
2018-01-03T22:36:51.060Z,12.13
2018-01-03T22:39:19.207Z,11.23
2018-01-03T22:41:48.105Z,8.80
2018-01-03T22:44:17.028Z,8.77
2018-01-03T22:46:45.163Z,9.33
2018-01-03T22:49:14.097Z,5.60
2018-01-03T22:51:42.262Z,6.30
2018-01-03T22:54:10.428Z,5.53
2018-01-03T22:56:38.579Z,18.53
2018-01-03T22:59:07.503Z,5.17
2018-01-03T23:01:35.635Z,10.37
2018-01-03T23:04:04.549Z,7.37
2018-01-03T23:06:33.437Z,6.20
2018-01-03T23:09:02.347Z,7.80
2018-01-03T23:11:30.498Z,10.97
2018-01-03T23:13:59.465Z,8.70
2018-01-03T23:16:28.788Z,13.03
2018-01-03T23:18:57.719Z,10.00
2018-01-03T23:21:25.852Z,11.70
2018-01-03T23:23:54.771Z,13.13
2018-01-03T23:26:22.908Z,8.53
2018-01-03T23:28:51.048Z,9.90
2018-01-03T23:31:19.208Z,11.90
2018-01-03T23:33:47.378Z,9.70
2018-01-03T23:36:15.498Z,5.77
2018-01-03T23:38:43.642Z,8.60
2018-01-03T23:41:11.759Z,6.03
2018-01-03T23:43:40.692Z,10.63
2018-01-03T23:46:08.815Z,13.87
2018-01-03T23:48:37.010Z,17.00
2018-01-03T23:51:05.135Z,3.70
2018-01-03T23:53:33.283Z,8.97
2018-01-03T23:56:01.415Z,14.70
2018-01-03T23:58:29.584Z,4.83
